Time;durP1;ratioP1;P1;durP2;ratioP2;P2;SDS_P1;SDS_P2;PMS_P1;PMS_P2;Temp;Humidity;BMP_temperature;BMP_pressure;BME280_temperature;BME280_humidity;BME280_pressure;Samples;Min_cycle;Max_cycle;Signal;HPM_P1;HPM_P2
2022/05/28 00:01:55;;;;;;;14.10;2.75;;;;;;;10.46;64.20;100029.65;2106838;84;27634;-67
2022/05/28 00:04:56;;;;;;;7.45;2.12;;;;;;;10.42;64.18;100025.88;2106734;84;28883;-66
2022/05/28 00:07:58;;;;;;;10.93;2.83;;;;;;;10.34;64.30;100025.77;2106612;84;30921;-66
2022/05/28 00:11:00;;;;;;;10.18;2.80;;;;;;;10.28;64.34;100022.55;2106491;84;33843;-67
2022/05/28 00:14:03;;;;;;;10.10;3.10;;;;;;;10.23;64.42;100028.16;2106813;84;29884;-66
2022/05/28 00:17:04;;;;;;;8.85;2.65;;;;;;;10.15;64.53;100027.23;2103443;84;27725;-66
2022/05/28 00:20:08;;;;;;;12.55;3.00;;;;;;;10.09;64.70;100023.55;2101945;84;29027;-66
2022/05/28 00:23:13;;;;;;;10.07;3.03;;;;;;;10.07;64.77;100022.77;2102181;84;31218;-66
2022/05/28 00:26:15;;;;;;;8.38;2.62;;;;;;;10.04;64.86;100021.09;2101552;84;34212;-67
2022/05/28 00:29:16;;;;;;;7.35;2.67;;;;;;;10.02;65.02;100019.45;2101936;84;29127;-67
2022/05/28 00:32:18;;;;;;;9.40;2.55;;;;;;;9.99;65.06;100020.48;2101608;84;27707;-66
2022/05/28 00:35:22;;;;;;;12.63;3.02;;;;;;;9.95;65.03;100019.36;2101261;84;27631;-67
2022/05/28 00:38:25;;;;;;;13.90;2.58;;;;;;;9.91;64.93;100013.80;2101801;84;32203;-67
2022/05/28 00:41:27;;;;;;;17.77;2.90;;;;;;;9.84;64.99;100015.44;2101393;84;35127;-65
2022/05/28 00:44:32;;;;;;;10.13;2.52;;;;;;;9.79;65.05;100013.46;2101762;84;29325;-67
2022/05/28 00:47:34;;;;;;;7.83;2.55;;;;;;;9.75;65.11;100016.37;2106127;84;27785;-66
2022/05/28 00:50:38;;;;;;;10.65;2.65;;;;;;;9.69;65.19;100016.22;2085595;84;28566;-65
2022/05/28 00:53:39;;;;;;;10.78;2.70;;;;;;;9.62;65.26;100006.31;2106723;84;31135;-66
2022/05/28 00:56:41;;;;;;;10.53;2.95;;;;;;;9.56;65.45;100001.26;2107065;84;33899;-65
2022/05/28 00:59:44;;;;;;;8.45;2.20;;;;;;;9.50;65.50;99998.91;2106465;84;30213;-65
2022/05/28 01:03:11;;;;;;;13.72;3.27;;;;;;;9.42;65.39;100007.31;2107282;84;28199;-65
2022/05/28 01:06:21;;;;;;;11.55;3.02;;;;;;;9.36;65.63;100010.28;2100395;83;29062;-66
2022/05/28 01:09:37;;;;;;;7.47;2.72;;;;;;;9.31;65.80;100010.52;2094860;84;31634;-65
2022/05/28 01:12:58;;;;;;;10.18;2.60;;;;;;;9.27;65.92;99996.90;2073911;85;33072;-65
2022/05/28 01:16:08;;;;;;;9.48;2.80;;;;;;;9.31;66.23;100000.28;2088285;85;29406;-66
2022/05/28 01:19:43;;;;;;;9.43;2.65;;;;;;;9.32;66.27;99998.88;2078595;84;27707;-66
2022/05/28 01:23:26;;;;;;;8.88;2.62;;;;;;;9.37;66.44;99994.64;2078701;84;29921;-65
2022/05/28 01:27:07;;;;;;;6.15;2.52;;;;;;;9.43;66.37;99997.88;2078478;85;32363;-65
2022/05/28 01:30:11;;;;;;;9.78;2.65;;;;;;;9.50;66.45;99993.08;2078629;84;33215;-64
2022/05/28 01:33:15;;;;;;;15.43;2.75;;;;;;;9.58;66.63;99995.36;2087307;85;29381;-65
2022/05/28 01:36:18;;;;;;;10.55;3.30;;;;;;;9.64;66.53;100001.75;2082124;85;27606;-65
2022/05/28 01:39:20;;;;;;;9.03;2.75;;;;;;;9.70;66.58;99991.21;2078742;84;28839;-65
2022/05/28 01:42:25;;;;;;;8.90;2.65;;;;;;;9.76;66.67;99989.57;2068629;85;27891;-65
2022/05/28 01:45:29;;;;;;;5.45;2.00;;;;;;;9.82;66.50;99986.56;2045369;85;33478;-66
2022/05/28 01:48:32;;;;;;;17.87;3.77;;;;;;;9.86;66.33;99980.11;2079008;85;29322;-66
2022/05/28 01:51:37;;;;;;;6.45;2.22;;;;;;;9.89;66.37;99985.77;2078539;84;27913;-66
2022/05/28 01:54:43;;;;;;;12.00;2.45;;;;;;;9.92;66.14;99972.72;2078773;85;28700;-67
2022/05/28 01:57:45;;;;;;;11.93;2.98;;;;;;;9.96;66.35;99972.92;2078741;85;31961;-66
2022/05/28 02:00:48;;;;;;;10.88;2.55;;;;;;;10.01;66.27;99971.73;2078767;85;33138;-65
2022/05/28 02:03:52;;;;;;;14.85;2.12;;;;;;;10.04;66.17;99976.08;2078876;85;30136;-66
2022/05/28 02:06:55;;;;;;;13.20;2.42;;;;;;;10.09;66.22;99975.83;2102460;84;27718;-66
2022/05/28 02:10:11;;;;;;;10.15;2.37;;;;;;;10.10;66.36;99971.72;2107004;84;29289;-65
2022/05/28 02:13:23;;;;;;;9.28;2.42;;;;;;;10.07;66.24;99965.22;2106883;84;31613;-66
2022/05/28 02:16:57;;;;;;;13.62;2.17;;;;;;;10.04;66.38;99968.05;2035656;87;33636;-65
2022/05/28 02:20:04;;;;;;;5.53;2.42;;;;;;;10.02;66.34;99960.58;2007061;88;30533;-66
2022/05/28 02:23:14;;;;;;;4.92;1.90;;;;;;;9.99;66.37;99958.94;2007401;88;27759;-66
2022/05/28 02:26:43;;;;;;;7.95;1.90;;;;;;;9.96;66.35;99964.45;1947855;91;29531;-66
2022/05/28 02:29:45;;;;;;;9.20;1.87;;;;;;;9.93;66.67;99961.92;1947737;91;31235;-66
2022/05/28 02:32:47;;;;;;;7.08;2.47;;;;;;;9.88;66.76;99951.47;1947566;91;34214;-65
2022/05/28 02:35:49;;;;;;;8.20;2.58;;;;;;;9.82;66.63;99954.45;1947782;91;29884;-65
2022/05/28 02:38:51;;;;;;;10.53;2.33;;;;;;;9.71;66.41;99950.99;1947868;91;27764;-65
2022/05/28 02:41:52;;;;;;;18.57;2.98;;;;;;;9.65;66.41;99953.13;1947980;91;29136;-66
2022/05/28 02:44:54;;;;;;;11.97;3.22;;;;;;;9.57;66.38;99948.17;1947484;91;31167;-66
2022/05/28 02:47:56;;;;;;;9.93;2.35;;;;;;;9.52;66.37;99942.18;1947947;91;33388;-66
2022/05/28 02:51:08;;;;;;;10.72;2.87;;;;;;;9.48;66.27;99953.52;1947921;91;30150;-66
2022/05/28 02:54:09;;;;;;;10.03;1.90;;;;;;;9.47;66.22;99941.09;1927707;91;27747;-66
2022/05/28 02:57:11;;;;;;;10.95;2.27;;;;;;;9.49;66.26;99949.05;2046267;85;29715;-67
2022/05/28 03:00:15;;;;;;;6.50;2.00;;;;;;;9.51;66.26;99949.84;2091772;84;32224;-65
2022/05/28 03:03:19;;;;;;;6.58;2.00;;;;;;;9.55;66.23;99948.72;2106598;84;32972;-66
2022/05/28 03:06:21;;;;;;;8.58;1.60;;;;;;;9.59;66.24;99948.96;2106406;84;29402;-66
2022/05/28 03:09:23;;;;;;;7.42;2.37;;;;;;;9.65;66.02;99941.09;2106994;84;27665;-66
2022/05/28 03:12:25;;;;;;;7.03;1.87;;;;;;;9.73;65.96;99950.94;2106758;84;28683;-65
2022/05/28 03:15:27;;;;;;;8.58;2.35;;;;;;;9.80;65.87;99950.14;2106317;84;32304;-66
2022/05/28 03:18:29;;;;;;;8.98;2.37;;;;;;;9.85;65.79;99939.58;2106273;84;34269;-66
2022/05/28 03:21:31;;;;;;;9.90;2.35;;;;;;;9.93;65.83;99947.70;2106768;84;29334;-66
2022/05/28 03:24:33;;;;;;;7.25;2.25;;;;;;;10.00;65.81;99953.98;2086543;84;27720;-67
2022/05/28 03:27:39;;;;;;;9.40;2.12;;;;;;;10.09;65.63;99945.94;2106532;84;29938;-65
2022/05/28 03:30:41;;;;;;;12.98;2.20;;;;;;;10.13;65.45;99949.30;2103195;84;31033;-65
2022/05/28 03:33:43;;;;;;;6.97;2.42;;;;;;;10.15;65.29;99950.94;2101733;84;33057;-66
2022/05/28 03:36:46;;;;;;;10.50;2.15;;;;;;;10.16;65.24;99947.80;2101555;84;30188;-66
2022/05/28 03:39:48;;;;;;;4.97;1.82;;;;;;;10.18;65.31;99951.23;2101946;84;27600;-66
2022/05/28 03:42:49;;;;;;;7.12;2.42;;;;;;;10.18;65.11;99948.56;2101514;84;29940;-66
2022/05/28 03:45:52;;;;;;;8.68;1.47;;;;;;;10.19;65.01;99943.59;2101735;84;31714;-65
2022/05/28 03:49:05;;;;;;;4.25;1.60;;;;;;;10.20;65.07;99942.66;2101424;84;33844;-65
2022/05/28 03:52:08;;;;;;;6.25;1.55;;;;;;;10.23;65.12;99940.30;2101703;84;29709;-65
2022/05/28 03:55:10;;;;;;;11.83;2.92;;;;;;;10.24;64.97;99945.56;2101851;84;27520;-65
2022/05/28 03:58:12;;;;;;;8.15;1.75;;;;;;;10.24;65.02;99944.72;2101808;84;27883;-66
2022/05/28 04:01:14;;;;;;;10.50;2.20;;;;;;;10.32;65.04;99952.72;2101539;84;32233;-65
2022/05/28 04:04:16;;;;;;;14.30;2.42;;;;;;;10.38;65.06;99955.56;2101567;84;34051;-65
2022/05/28 04:07:19;;;;;;;6.58;1.65;;;;;;;10.44;64.98;99953.88;2101240;84;30332;-67
2022/05/28 04:10:21;;;;;;;7.47;2.30;;;;;;;10.58;64.88;99961.66;2101555;84;27669;-66
2022/05/28 04:13:22;;;;;;;8.50;2.35;;;;;;;10.77;64.79;99954.78;2101504;84;28644;-66
2022/05/28 04:16:25;;;;;;;11.70;2.65;;;;;;;10.90;64.56;99953.13;2101633;84;31445;-66
2022/05/28 04:19:27;;;;;;;9.90;1.65;;;;;;;11.00;64.07;99953.48;2101058;84;33830;-67
2022/05/28 04:22:29;;;;;;;11.12;2.15;;;;;;;11.12;64.15;99955.94;2101328;84;30691;-67
2022/05/28 04:25:31;;;;;;;6.28;1.30;;;;;;;11.28;64.20;99957.23;2101443;84;28235;-67
2022/05/28 04:28:32;;;;;;;10.28;1.72;;;;;;;11.51;63.91;99948.33;2102239;84;29647;-67
2022/05/28 04:31:35;;;;;;;4.78;2.20;;;;;;;11.76;63.77;99954.89;2106242;84;32280;-67
2022/05/28 04:34:37;;;;;;;8.15;1.80;;;;;;;12.07;63.75;99953.94;2106199;84;34385;-66
2022/05/28 04:37:39;;;;;;;6.60;1.65;;;;;;;12.49;64.00;99951.34;2106292;84;30529;-66
2022/05/28 04:40:41;;;;;;;7.17;1.42;;;;;;;13.29;63.43;99948.45;2106655;84;27707;-67
2022/05/28 04:43:43;;;;;;;9.88;1.80;;;;;;;13.50;62.31;99951.56;2106819;84;29707;-67
2022/05/28 04:46:45;;;;;;;8.95;2.10;;;;;;;13.45;61.67;99953.22;2085860;84;31497;-66
2022/05/28 04:49:47;;;;;;;5.67;1.90;;;;;;;13.39;61.14;99950.93;2106859;84;34115;-67
2022/05/28 04:52:49;;;;;;;6.28;2.00;;;;;;;13.30;60.79;99941.66;2107038;84;29671;-67
2022/05/28 04:55:51;;;;;;;7.45;2.50;;;;;;;13.23;60.64;99932.25;2106994;84;27729;-67
2022/05/28 04:58:53;;;;;;;5.87;1.40;;;;;;;13.16;60.69;99940.33;2105302;84;29891;-67
2022/05/28 05:01:55;;;;;;;6.80;1.65;;;;;;;13.09;59.96;99933.66;2101351;84;30584;-68
2022/05/28 05:04:58;;;;;;;3.40;1.30;;;;;;;12.98;59.88;99942.42;2101436;84;34208;-66
2022/05/28 05:08:00;;;;;;;6.53;1.60;;;;;;;12.96;60.18;99951.06;2103202;84;29358;-66
2022/05/28 05:11:02;;;;;;;4.60;1.55;;;;;;;12.96;59.72;99947.91;2104225;84;28163;-66
2022/05/28 05:14:03;;;;;;;7.28;2.10;;;;;;;13.01;59.81;99950.30;2104368;84;28675;-66
2022/05/28 05:17:05;;;;;;;8.65;1.90;;;;;;;13.00;59.67;99948.07;2104187;84;31435;-66
2022/05/28 05:20:09;;;;;;;9.50;1.70;;;;;;;13.02;59.87;99946.15;2104352;84;33768;-66
2022/05/28 05:23:12;;;;;;;10.20;2.40;;;;;;;13.05;59.54;99952.67;2106718;84;29588;-66
2022/05/28 05:26:18;;;;;;;11.88;2.05;;;;;;;13.16;59.40;99956.47;2109839;84;27737;-66
2022/05/28 05:29:20;;;;;;;6.97;1.72;;;;;;;13.57;60.04;99959.61;2109644;84;28658;-65
2022/05/28 05:32:22;;;;;;;7.58;1.62;;;;;;;14.14;58.87;99945.41;2109674;84;31556;-65
2022/05/28 05:35:24;;;;;;;6.30;1.45;;;;;;;14.94;59.22;99943.36;2109710;84;33913;-65
2022/05/28 05:38:25;;;;;;;10.05;2.00;;;;;;;16.27;58.62;99932.39;2109528;84;29171;-65
2022/05/28 05:41:27;;;;;;;6.05;1.57;;;;;;;17.76;57.41;99927.88;2109429;84;27722;-66
2022/05/28 05:44:29;;;;;;;4.62;1.67;;;;;;;19.15;56.33;99923.40;2109554;84;30020;-65
2022/05/28 05:47:31;;;;;;;4.92;1.67;;;;;;;20.26;54.81;99921.18;2109188;84;32394;-66
2022/05/28 05:50:33;;;;;;;10.43;1.98;;;;;;;21.21;53.15;99920.97;2109402;84;34354;-66
2022/05/28 05:53:35;;;;;;;5.28;1.50;;;;;;;22.11;51.67;99914.55;2106708;84;29760;-65
2022/05/28 05:56:39;;;;;;;4.05;1.50;;;;;;;22.66;49.67;99908.38;2081792;84;27686;-67
2022/05/28 05:59:40;;;;;;;2.72;1.20;;;;;;;23.34;49.56;99915.22;2104574;84;29678;-66
2022/05/28 06:02:43;;;;;;;4.92;1.32;;;;;;;24.09;48.78;99913.34;2104086;84;31247;-65
2022/05/28 06:05:45;;;;;;;5.22;1.87;;;;;;;24.70;46.55;99909.58;2104083;84;34128;-65
2022/05/28 06:08:47;;;;;;;4.20;1.90;;;;;;;24.97;45.42;99912.02;2103619;84;30216;-65
2022/05/28 06:11:50;;;;;;;6.03;1.30;;;;;;;25.49;44.97;99903.63;2104143;84;27829;-65
2022/05/28 06:14:51;;;;;;;3.30;1.32;;;;;;;25.40;42.22;99912.41;2103590;84;29702;-66
2022/05/28 06:17:53;;;;;;;5.40;1.10;;;;;;;24.47;42.91;99904.53;2104292;84;31402;-67
2022/05/28 06:20:56;;;;;;;6.42;1.60;;;;;;;24.14;42.36;99904.63;2104152;84;33357;-65
2022/05/28 06:24:00;;;;;;;5.83;1.50;;;;;;;23.52;42.25;99909.62;2104073;84;30509;-65
2022/05/28 06:27:02;;;;;;;;;;;;;;;22.84;41.31;99914.24;2106897;84;27654;-66
2022/05/28 06:30:06;;;;;;;4.17;1.40;;;;;;;22.08;41.00;99909.44;2104297;84;29966;-66
2022/05/28 06:33:08;;;;;;;3.20;1.00;;;;;;;21.41;41.17;99920.82;2104430;84;31200;-65
2022/05/28 06:36:12;;;;;;;4.08;1.05;;;;;;;20.73;41.63;99902.53;2103812;84;34180;-65
2022/05/28 06:39:14;;;;;;;3.33;1.32;;;;;;;20.16;41.70;99909.45;2104468;84;29993;-67
2022/05/28 06:42:16;;;;;;;6.78;1.05;;;;;;;19.79;42.39;99908.38;2104114;84;27671;-65
2022/05/28 06:45:19;;;;;;;4.03;1.22;;;;;;;19.99;42.82;99916.53;2103950;84;29973;-66
2022/05/28 06:48:21;;;;;;;8.03;1.47;;;;;;;19.85;42.36;99906.93;2103964;84;31046;-66
2022/05/28 06:51:23;;;;;;;3.35;1.15;;;;;;;19.46;42.50;99910.56;2103803;84;33850;-65
2022/05/28 06:54:25;;;;;;;5.33;1.92;;;;;;;19.43;42.54;99908.13;2106946;84;29341;-66
2022/05/28 06:57:27;;;;;;;2.98;1.10;;;;;;;19.27;43.25;99914.14;2104998;84;27672;-67
2022/05/28 07:00:29;;;;;;;6.28;1.62;;;;;;;20.02;43.61;99899.41;2104188;84;30042;-69
2022/05/28 07:03:31;;;;;;;4.20;1.65;;;;;;;20.98;43.24;99897.41;2104193;84;31032;-65
2022/05/28 07:06:34;;;;;;;5.35;1.57;;;;;;;21.33;42.14;99888.91;2104496;84;32976;-67
2022/05/28 07:09:35;;;;;;;5.92;1.65;;;;;;;21.76;41.58;99881.42;2096252;84;30501;-68
2022/05/28 07:12:38;;;;;;;7.15;1.70;;;;;;;21.85;40.97;99886.78;2096373;84;27743;-66
2022/05/28 07:15:40;;;;;;;6.33;1.45;;;;;;;21.95;40.03;99885.31;2096957;84;28855;-70
2022/05/28 07:18:43;;;;;;;4.28;1.22;;;;;;;21.95;40.05;99874.89;2096812;84;31468;-66
2022/05/28 07:21:47;;;;;;;3.40;1.45;;;;;;;21.79;40.05;99877.02;2096504;84;33682;-69
2022/05/28 07:24:48;;;;;;;6.67;1.40;;;;;;;21.60;39.36;99872.57;2096277;84;30191;-66
2022/05/28 07:27:50;;;;;;;3.83;0.90;;;;;;;21.21;39.52;99871.06;2097227;84;27830;-66
2022/05/28 07:30:58;;;;;;;4.22;1.30;;;;;;;20.84;39.65;99877.00;2101083;84;28642;-66
2022/05/28 07:34:00;;;;;;;9.05;1.70;;;;;;;20.57;40.05;99878.72;2101156;84;31233;-66
2022/05/28 07:37:03;;;;;;;3.62;1.07;;;;;;;20.17;38.86;99881.25;2101085;84;33738;-67
2022/05/28 07:40:07;;;;;;;6.03;1.30;;;;;;;19.76;39.69;99866.53;2101238;84;30115;-65
2022/05/28 07:43:09;;;;;;;5.10;1.55;;;;;;;19.98;39.40;99862.64;2101244;84;27829;-65
2022/05/28 07:46:14;;;;;;;3.77;1.40;;;;;;;20.15;39.49;99865.09;2098212;84;28948;-64
2022/05/28 07:49:16;;;;;;;5.00;1.52;;;;;;;20.07;39.49;99865.48;2097342;84;30520;-65
2022/05/28 07:52:17;;;;;;;8.15;1.27;;;;;;;20.10;39.46;99848.87;2102833;84;33428;-66
2022/05/28 07:55:19;;;;;;;5.53;1.45;;;;;;;20.17;38.70;99845.41;2103227;84;29324;-65
2022/05/28 07:58:21;;;;;;;6.47;1.22;;;;;;;20.10;38.66;99858.39;2031438;86;27800;-65
2022/05/28 08:01:27;;;;;;;4.65;1.15;;;;;;;19.96;38.98;99842.05;2039686;86;28841;-65
2022/05/28 08:04:29;;;;;;;3.58;1.22;;;;;;;19.99;38.77;99853.99;2033970;87;30936;-65
2022/05/28 08:07:31;;;;;;;6.95;1.10;;;;;;;19.96;38.44;99842.89;2050011;86;33012;-65
2022/05/28 08:10:34;;;;;;;4.58;1.30;;;;;;;20.33;39.49;99843.91;2053833;86;29773;-65
2022/05/28 08:13:36;;;;;;;4.40;1.62;;;;;;;20.97;39.38;99839.88;2053988;86;27720;-66
2022/05/28 08:16:39;;;;;;;4.47;1.45;;;;;;;21.53;38.76;99838.28;2053807;86;29460;-65
2022/05/28 08:19:41;;;;;;;7.17;1.40;;;;;;;22.15;38.60;99838.19;2053708;86;32089;-65
2022/05/28 08:26:03;;;;;;;8.45;1.98;;;;;;;23.35;36.68;99830.33;2075037;85;30524;-66
2022/05/28 08:29:05;;;;;;;5.10;1.25;;;;;;;23.40;35.76;99850.31;2075290;85;27671;-65
2022/05/28 08:32:08;;;;;;;5.15;1.70;;;;;;;23.50;35.63;99845.52;2075177;85;28655;-66
2022/05/28 08:35:11;;;;;;;3.72;1.50;;;;;;;23.42;35.61;99853.73;2051921;85;31487;-66
2022/05/28 08:38:17;;;;;;;3.67;1.17;;;;;;;23.38;35.56;99860.56;2075090;85;33026;-66
2022/05/28 08:41:33;;;;;;;6.67;1.37;;;;;;;23.79;34.95;99849.60;2075368;85;29296;-66
2022/05/28 08:44:39;;;;;;;3.87;1.00;;;;;;;23.61;34.81;99847.58;2059308;85;27741;-66
2022/05/28 08:47:47;;;;;;;4.28;1.60;;;;;;;23.55;34.55;99855.09;2103813;84;28860;-66
2022/05/28 08:51:13;;;;;;;7.15;1.85;;;;;;;23.86;34.10;99843.41;2104135;84;31689;-66
2022/05/28 08:54:39;;;;;;;5.42;1.00;;;;;;;24.06;33.73;99839.83;2104251;84;32546;-67
2022/05/28 08:57:59;;;;;;;5.33;1.72;;;;;;;23.73;33.32;99836.61;2103965;84;30588;-66
2022/05/28 09:01:14;;;;;;;2.87;1.57;;;;;;;23.52;33.51;99848.09;2104524;84;27729;-66
2022/05/28 09:04:24;;;;;;;2.58;1.30;;;;;;;23.50;34.03;99846.05;2104221;84;28735;-66
2022/05/28 09:07:26;;;;;;;6.08;1.42;;;;;;;23.48;33.89;99845.36;2103920;84;31098;-66
2022/05/28 09:10:33;;;;;;;3.50;1.12;;;;;;;23.10;33.56;99848.56;2096167;84;34308;-65
2022/05/28 09:13:47;;;;;;;6.58;1.25;;;;;;;22.64;33.65;99848.98;2081275;84;29375;-66
2022/05/28 09:16:54;;;;;;;6.12;1.30;;;;;;;22.36;33.60;99868.30;2103239;84;27718;-65
2022/05/28 09:20:04;;;;;;;2.80;1.20;;;;;;;22.13;33.96;99857.11;2103151;84;29116;-65
2022/05/28 09:23:06;;;;;;;2.80;1.12;;;;;;;21.95;33.47;99849.85;2103086;84;31035;-66
2022/05/28 09:26:09;;;;;;;9.45;1.52;;;;;;;21.68;33.96;99863.98;2102653;84;33884;-65
2022/05/28 09:29:23;;;;;;;2.77;1.10;;;;;;;21.60;34.14;99854.39;2103029;84;30129;-66
2022/05/28 09:32:56;;;;;;;3.45;1.07;;;;;;;21.45;34.19;99859.52;2102674;84;28240;-65
2022/05/28 09:36:35;;;;;;;4.00;0.80;;;;;;;21.26;34.58;99851.02;2102720;84;29921;-65
2022/05/28 09:39:49;;;;;;;3.60;1.12;;;;;;;21.23;34.44;99852.20;2102688;84;31148;-66
2022/05/28 09:43:34;;;;;;;2.60;1.00;;;;;;;21.29;34.50;99838.45;2102172;84;33701;-65
2022/05/28 09:46:40;;;;;;;2.83;0.70;;;;;;;20.90;34.54;99847.81;2100898;84;30317;-65
2022/05/28 09:49:54;;;;;;;5.03;0.98;;;;;;;20.67;34.69;99847.85;2101272;84;28236;-67
2022/05/28 09:56:37;;;;;;;8.05;1.25;;;;;;;20.37;34.42;99869.78;2100081;84;32253;-64
2022/05/28 09:59:51;;;;;;;4.10;0.85;;;;;;;19.92;35.52;99883.64;2099983;84;32898;-62
2022/05/28 10:06:21;;;;;;;6.72;1.20;;;;;;;19.19;37.39;99927.08;2069922;85;27956;-65
2022/05/28 10:09:30;;;;;;;4.87;0.75;;;;;;;18.86;38.33;99931.84;2066916;85;28710;-64
2022/05/28 10:12:32;;;;;;;1.07;0.35;;;;;;;18.49;39.15;99925.66;2065207;86;32292;-64
2022/05/28 10:15:43;;;;;;;1.25;0.80;;;;;;;18.09;40.29;99930.03;2062993;85;34233;-65
2022/05/28 10:18:57;;;;;;;2.65;0.40;;;;;;;17.82;41.38;99923.77;2104896;84;29328;-65
2022/05/28 10:22:03;;;;;;;9.40;1.00;;;;;;;17.61;41.95;99918.72;2106049;84;27559;-66
2022/05/28 10:25:11;;;;;;;4.37;1.00;;;;;;;17.42;42.96;99906.38;2065777;85;29719;-65
2022/05/28 10:28:13;;;;;;;5.00;0.72;;;;;;;17.40;42.94;99896.17;2074062;85;31235;-66
2022/05/28 10:31:22;;;;;;;5.30;1.52;;;;;;;17.41;42.60;99907.37;2073444;85;33827;-65
2022/05/28 10:34:38;;;;;;;4.60;0.75;;;;;;;17.46;43.47;99895.63;2070589;85;29323;-67
2022/05/28 10:37:40;;;;;;;2.95;1.62;;;;;;;17.74;43.38;99887.34;2079731;84;28234;-68
2022/05/28 10:40:52;;;;;;;2.33;0.50;;;;;;;18.15;43.35;99884.75;2054662;86;28658;-68
2022/05/28 10:43:54;;;;;;;4.28;0.75;;;;;;;18.48;42.78;99873.75;2054751;85;31837;-69
2022/05/28 10:47:16;;;;;;;5.80;1.00;;;;;;;18.73;41.39;99873.74;2054542;86;32425;-69
2022/05/28 10:50:44;;;;;;;1.37;0.80;;;;;;;18.80;40.13;99880.83;2054680;86;28783;-66
2022/05/28 10:54:25;;;;;;;2.62;0.68;;;;;;;18.83;38.55;99880.03;2054763;86;27727;-69
2022/05/28 10:57:50;;;;;;;4.28;0.90;;;;;;;18.75;39.84;99891.23;2059414;84;29539;-69
2022/05/28 11:01:05;;;;;;;4.67;0.68;;;;;;;18.61;39.26;99886.56;2050483;86;31182;-68
2022/05/28 11:04:50;;;;;;;5.83;0.90;;;;;;;18.55;39.37;99864.05;2051599;86;33784;-67
2022/05/28 11:08:03;;;;;;;2.00;0.95;;;;;;;18.58;39.10;99884.13;2091870;84;30440;-65
2022/05/28 11:11:33;;;;;;;1.85;0.75;;;;;;;18.64;38.86;99885.41;2103853;84;27749;-63
2022/05/28 11:15:20;;;;;;;4.28;1.20;;;;;;;18.72;39.04;99884.72;2104324;84;28895;-65
2022/05/28 11:18:56;;;;;;;1.52;0.57;;;;;;;18.80;38.70;99889.81;2105253;84;31875;-64
2022/05/28 11:22:21;;;;;;;2.72;0.93;;;;;;;18.90;39.07;99887.63;2109048;84;34185;-64
2022/05/28 11:25:38;;;;;;;;;;;;;;;18.93;38.62;99875.14;2101985;84;29414;-66
2022/05/28 11:29:01;;;;;;;2.22;0.60;;;;;;;19.04;39.08;99887.25;2093683;84;27852;-66
2022/05/28 11:32:23;;;;;;;1.02;0.62;;;;;;;18.98;38.33;99880.53;2025091;87;28678;-65
2022/05/28 11:35:37;;;;;;;4.42;0.90;;;;;;;19.10;39.16;99877.67;2025950;87;32072;-65
2022/05/28 11:38:47;;;;;;;4.25;0.85;;;;;;;19.22;39.25;99875.69;2030209;87;33349;-64
2022/05/28 11:41:53;;;;;;;1.65;1.02;;;;;;;19.16;38.84;99871.69;2037048;87;29717;-62
2022/05/28 11:44:56;;;;;;;4.37;1.07;;;;;;;18.99;39.11;99870.52;2038322;86;27711;-62
2022/05/28 11:48:09;;;;;;;1.10;0.90;;;;;;;18.74;39.28;99875.95;2038048;87;29092;-68
2022/05/28 11:51:28;;;;;;;2.70;0.75;;;;;;;18.50;39.19;99871.25;2037870;87;31925;-64
2022/05/28 11:54:44;;;;;;;29.18;3.17;;;;;;;18.40;39.47;99875.80;2037813;87;33941;-63
2022/05/28 11:58:19;;;;;;;1.07;0.70;;;;;;;18.46;39.79;99893.37;2037941;87;29732;-63
2022/05/28 12:01:24;;;;;;;3.25;0.82;;;;;;;18.17;40.46;99922.08;2026346;87;27664;-66
2022/05/28 12:04:26;;;;;;;1.77;0.98;;;;;;;17.84;41.64;99910.95;2007312;88;28701;-66
2022/05/28 12:07:39;;;;;;;1.82;0.53;;;;;;;17.80;41.93;99906.78;2007043;88;32284;-65
2022/05/28 12:10:57;;;;;;;2.05;1.02;;;;;;;17.83;42.28;99903.81;2005112;88;34201;-64
2022/05/28 12:14:06;;;;;;;2.70;1.00;;;;;;;17.76;42.31;99905.69;2005797;88;29395;-64
2022/05/28 12:17:25;;;;;;;1.25;0.65;;;;;;;17.74;42.75;99902.76;2005742;88;27806;-63
2022/05/28 12:20:34;;;;;;;2.05;1.10;;;;;;;17.70;43.56;99907.59;2002868;88;30163;-63
2022/05/28 12:23:44;;;;;;;2.37;1.02;;;;;;;17.69;43.52;99892.33;2003304;88;31087;-62
2022/05/28 12:30:25;;;;;;;2.92;0.98;;;;;;;17.49;43.06;99880.47;2101473;84;29114;-67
2022/05/28 12:33:31;;;;;;;3.50;0.90;;;;;;;17.40;43.35;99885.34;2104584;84;27676;-69
2022/05/28 12:36:45;;;;;;;1.32;0.65;;;;;;;17.38;42.90;99867.00;2104291;84;28656;-65
2022/05/28 12:40:31;;;;;;;4.72;1.30;;;;;;;17.41;42.93;99870.30;2104608;84;30879;-67
2022/05/28 12:43:39;;;;;;;3.42;1.05;;;;;;;17.50;43.06;99862.39;2103133;84;28926;-69
2022/05/28 12:46:57;;;;;;;2.15;0.80;;;;;;;17.57;42.92;99865.80;2104396;84;30128;-66
2022/05/28 12:50:16;;;;;;;3.27;1.15;;;;;;;17.55;42.14;99854.23;2104813;84;28241;-68
2022/05/28 12:53:20;;;;;;;3.33;1.57;;;;;;;17.54;42.18;99852.51;2104231;84;29216;-66
2022/05/28 12:56:39;;;;;;;3.17;1.12;;;;;;;17.56;42.20;99858.66;2105108;84;31014;-68
2022/05/28 12:59:47;;;;;;;5.25;1.20;;;;;;;17.61;41.89;99865.02;2104244;84;33094;-69
2022/05/28 13:02:50;;;;;;;6.60;1.82;;;;;;;17.69;42.79;99869.78;2104174;84;29394;-67
2022/05/28 13:06:12;;;;;;;3.25;1.10;;;;;;;17.83;43.07;99875.36;2104134;84;27739;-69
2022/05/28 13:09:14;;;;;;;6.00;1.12;;;;;;;18.06;42.86;99870.66;2063201;85;29863;-69
2022/05/28 13:12:21;;;;;;;6.83;1.20;;;;;;;18.35;42.67;99867.20;2075525;85;31052;-69
2022/05/28 13:15:50;;;;;;;2.62;1.05;;;;;;;18.50;42.25;99867.69;2073752;85;34706;-68
2022/05/28 13:19:29;;;;;;;1.80;0.90;;;;;;;18.50;41.73;99864.47;2077210;85;30164;-69
2022/05/28 13:23:00;;;;;;;2.45;0.90;;;;;;;18.37;41.60;99854.37;2073205;85;27822;-65
2022/05/28 13:26:50;;;;;;;2.85;1.12;;;;;;;18.22;41.79;99862.89;2069205;86;28666;-69
2022/05/28 13:30:32;;;;;;;9.98;1.52;;;;;;;18.13;41.23;99873.69;2069413;86;31488;-65
2022/05/28 13:33:36;;;;;;;6.95;1.30;;;;;;;17.96;41.27;99866.99;2068983;85;34289;-68
2022/05/28 13:36:40;;;;;;;5.47;1.50;;;;;;;17.84;41.54;99875.73;2068879;86;29871;-69
2022/05/28 13:39:47;;;;;;;5.05;1.55;;;;;;;17.77;41.39;99872.70;2069526;86;27723;-68
2022/05/28 13:42:49;;;;;;;3.95;1.07;;;;;;;17.73;41.60;99886.14;2069440;85;28674;-70
2022/05/28 13:45:53;;;;;;;2.45;0.90;;;;;;;17.69;41.82;99883.32;2091896;84;31834;-69
2022/05/28 13:48:59;;;;;;;7.08;2.42;;;;;;;17.67;42.02;99879.88;2096026;84;33382;-64
2022/05/28 13:52:05;;;;;;;5.70;0.93;;;;;;;17.67;42.23;99890.23;2096557;84;30286;-66
2022/05/28 13:55:09;;;;;;;4.08;0.82;;;;;;;17.79;42.72;99884.74;2097007;84;27725;-67
2022/05/28 13:58:23;;;;;;;2.47;1.30;;;;;;;17.87;42.18;99891.21;2100866;84;28703;-64
2022/05/28 14:01:33;;;;;;;1.53;0.63;;;;;;;17.82;42.08;99889.39;2101329;84;30427;-68
2022/05/28 14:04:43;;;;;;;2.37;1.05;;;;;;;17.72;42.01;99894.74;2096882;84;33350;-63
2022/05/28 14:07:46;;;;;;;5.17;1.05;;;;;;;17.58;42.04;99931.64;2095465;84;30598;-62
2022/05/28 14:10:50;;;;;;;2.92;1.05;;;;;;;17.19;42.67;99943.00;2099393;84;27718;-63
2022/05/28 14:13:58;;;;;;;2.08;0.68;;;;;;;16.71;43.87;99947.75;2085287;84;29833;-66
2022/05/28 14:17:02;;;;;;;3.27;0.80;;;;;;;16.23;45.28;99940.74;2086461;84;31989;-68
2022/05/28 14:20:18;;;;;;;1.90;1.00;;;;;;;15.72;46.46;99941.98;2106530;84;32974;-68
2022/05/28 14:23:27;;;;;;;2.55;1.10;;;;;;;15.36;46.69;99953.77;2106330;84;29427;-62
2022/05/28 14:26:29;;;;;;;4.03;1.32;;;;;;;15.06;47.58;99957.28;2106959;84;27579;-64
2022/05/28 14:29:41;;;;;;;5.12;1.30;;;;;;;14.89;48.68;99954.50;2106113;84;29945;-65
2022/05/28 14:32:45;;;;;;;9.43;1.30;;;;;;;14.93;49.28;99953.27;2105459;84;31081;-66
2022/05/28 14:35:47;;;;;;;3.20;0.90;;;;;;;15.18;50.28;99955.02;2081684;84;34167;-66
2022/05/28 14:38:50;;;;;;;7.72;1.45;;;;;;;15.34;50.37;99964.66;2101673;84;29343;-65
2022/05/28 14:41:56;;;;;;;5.15;1.75;;;;;;;15.40;50.00;99956.11;2101700;84;27698;-65
2022/05/28 14:45:05;;;;;;;2.33;1.30;;;;;;;15.45;50.62;99950.35;2105903;84;29609;-65
2022/05/28 14:48:07;;;;;;;3.05;1.20;;;;;;;15.49;50.48;99948.64;2105591;84;31103;-70
2022/05/28 14:51:09;;;;;;;3.20;1.40;;;;;;;15.45;50.33;99939.08;2086934;84;32890;-68
2022/05/28 14:54:35;;;;;;;4.80;1.07;;;;;;;15.46;50.21;99939.93;2101972;84;29348;-67
2022/05/28 14:57:42;;;;;;;2.98;1.00;;;;;;;15.54;50.90;99926.72;2101693;84;27699;-66
2022/05/28 15:00:44;;;;;;;5.20;1.35;;;;;;;15.66;50.45;99926.24;2103077;84;29492;-71